La Louviere, Belgium
Current Conditions -  °F | °C
As of 3:20 PM on Thursday 29 Jan 2015 (Local Time) from EBCI Reporting Station
Light Rain Light Rain  
Wind Chill: 27°   Ceiling: 600
Heat Index: 36°   Visibility: 5mi
Dew Point: 36°   Wind: 13mph
Humidity: 100%   Direction: 210°SSW
Pressure: 29.03"   Gusts: NA
Location:  50.49°N, 4.19°E
Report Text: EBCI 291420Z 21011KT 8000 -RA BKN006 02/02 Q0983 TEMPO 4000 SNRA
Loading
Personal Weather Stations






























Interactive Weather Map New forecast layout! Learn more

10-Day Weather Forecast

Advertisements
Track Severe Weather on mobile